sensor_id;sensor_type;location;lat;lon;timestamp;pressure;altitude;pressure_sealevel;temperature;humidity
64078;BME280;51039;49.696;10.808;2023-02-02T00:01:33;98501.72;;;3.60;98.23
64078;BME280;51039;49.696;10.808;2023-02-02T00:03:59;98493.56;;;3.63;98.28
64078;BME280;51039;49.696;10.808;2023-02-02T00:06:26;98487.03;;;3.67;98.42
64078;BME280;51039;49.696;10.808;2023-02-02T00:08:52;98478.53;;;3.73;98.71
64078;BME280;51039;49.696;10.808;2023-02-02T00:11:20;98486.13;;;3.84;97.99
64078;BME280;51039;49.696;10.808;2023-02-02T00:13:46;98490.75;;;3.90;97.35
64078;BME280;51039;49.696;10.808;2023-02-02T00:18:57;98521.06;;;3.93;96.80
64078;BME280;51039;49.696;10.808;2023-02-02T00:21:23;98530.44;;;3.43;96.19
64078;BME280;51039;49.696;10.808;2023-02-02T00:23:49;98523.25;;;2.83;97.85
64078;BME280;51039;49.696;10.808;2023-02-02T00:26:15;98541.16;;;2.60;99.31
64078;BME280;51039;49.696;10.808;2023-02-02T00:28:42;98545.84;;;2.29;99.62
64078;BME280;51039;49.696;10.808;2023-02-02T00:31:07;98558.31;;;2.07;99.71
64078;BME280;51039;49.696;10.808;2023-02-02T00:33:33;98536.44;;;1.71;99.38
64078;BME280;51039;49.696;10.808;2023-02-02T00:35:58;98547.53;;;1.26;99.95
64078;BME280;51039;49.696;10.808;2023-02-02T00:38:23;98548.78;;;1.12;100.00
64078;BME280;51039;49.696;10.808;2023-02-02T00:40:49;98553.31;;;1.10;100.00
64078;BME280;51039;49.696;10.808;2023-02-02T00:43:14;98546.56;;;1.07;100.00
64078;BME280;51039;49.696;10.808;2023-02-02T00:45:39;98537.38;;;1.03;100.00
64078;BME280;51039;49.696;10.808;2023-02-02T00:48:05;98539.56;;;0.98;100.00
64078;BME280;51039;49.696;10.808;2023-02-02T00:50:30;98550.28;;;1.05;100.00
64078;BME280;51039;49.696;10.808;2023-02-02T00:52:56;98550.00;;;1.08;100.00
64078;BME280;51039;49.696;10.808;2023-02-02T00:55:25;98543.84;;;1.09;100.00
64078;BME280;51039;49.696;10.808;2023-02-02T00:57:50;98551.78;;;1.07;100.00
64078;BME280;51039;49.696;10.808;2023-02-02T01:00:17;98558.66;;;1.08;100.00
64078;BME280;51039;49.696;10.808;2023-02-02T01:02:47;98547.94;;;1.11;100.00
64078;BME280;51039;49.696;10.808;2023-02-02T01:05:13;98561.97;;;1.10;100.00
64078;BME280;51039;49.696;10.808;2023-02-02T01:07:39;98572.78;;;1.15;100.00
64078;BME280;51039;49.696;10.808;2023-02-02T01:10:05;98583.09;;;1.07;100.00
64078;BME280;51039;49.696;10.808;2023-02-02T01:12:32;98575.56;;;1.04;100.00
64078;BME280;51039;49.696;10.808;2023-02-02T01:14:58;98586.25;;;1.11;100.00
64078;BME280;51039;49.696;10.808;2023-02-02T01:17:23;98568.94;;;1.00;100.00
64078;BME280;51039;49.696;10.808;2023-02-02T01:19:48;98577.63;;;1.10;100.00
64078;BME280;51039;49.696;10.808;2023-02-02T01:22:14;98572.25;;;1.22;100.00
64078;BME280;51039;49.696;10.808;2023-02-02T01:24:39;98576.81;;;1.20;100.00
64078;BME280;51039;49.696;10.808;2023-02-02T01:27:04;98587.75;;;1.13;100.00
64078;BME280;51039;49.696;10.808;2023-02-02T01:29:30;98587.75;;;1.13;100.00
64078;BME280;51039;49.696;10.808;2023-02-02T01:31:56;98597.00;;;1.17;100.00
64078;BME280;51039;49.696;10.808;2023-02-02T01:34:21;98591.22;;;1.14;100.00
64078;BME280;51039;49.696;10.808;2023-02-02T01:36:47;98613.44;;;0.98;100.00
64078;BME280;51039;49.696;10.808;2023-02-02T01:39:12;98623.47;;;1.03;100.00
64078;BME280;51039;49.696;10.808;2023-02-02T01:41:38;98630.16;;;0.86;100.00
64078;BME280;51039;49.696;10.808;2023-02-02T01:44:05;98631.00;;;0.87;100.00
64078;BME280;51039;49.696;10.808;2023-02-02T01:46:51;98631.09;;;0.75;100.00
64078;BME280;51039;49.696;10.808;2023-02-02T01:49:17;98626.47;;;0.89;100.00
64078;BME280;51039;49.696;10.808;2023-02-02T01:51:49;98627.41;;;0.78;100.00
64078;BME280;51039;49.696;10.808;2023-02-02T01:54:21;98619.44;;;0.80;100.00
64078;BME280;51039;49.696;10.808;2023-02-02T01:56:55;98609.97;;;0.78;100.00
64078;BME280;51039;49.696;10.808;2023-02-02T01:59:24;98605.72;;;0.77;100.00
64078;BME280;51039;49.696;10.808;2023-02-02T02:01:52;98590.34;;;0.74;100.00
64078;BME280;51039;49.696;10.808;2023-02-02T02:04:19;98585.25;;;0.73;100.00
64078;BME280;51039;49.696;10.808;2023-02-02T02:06:45;98587.28;;;0.69;100.00
64078;BME280;51039;49.696;10.808;2023-02-02T02:09:12;98591.81;;;0.67;100.00
64078;BME280;51039;49.696;10.808;2023-02-02T02:11:38;98602.66;;;0.63;100.00
64078;BME280;51039;49.696;10.808;2023-02-02T02:14:06;98604.03;;;0.57;100.00
64078;BME280;51039;49.696;10.808;2023-02-02T02:34:12;98603.56;;;0.42;100.00
64078;BME280;51039;49.696;10.808;2023-02-02T02:36:49;98618.22;;;0.33;100.00
64078;BME280;51039;49.696;10.808;2023-02-02T02:42:05;98610.28;;;0.35;100.00
64078;BME280;51039;49.696;10.808;2023-02-02T02:44:35;98611.34;;;0.32;100.00
64078;BME280;51039;49.696;10.808;2023-02-02T02:47:01;98607.91;;;0.32;100.00
64078;BME280;51039;49.696;10.808;2023-02-02T02:49:27;98614.91;;;0.31;100.00
64078;BME280;51039;49.696;10.808;2023-02-02T02:51:53;98609.41;;;0.34;100.00
64078;BME280;51039;49.696;10.808;2023-02-02T03:02:52;98623.06;;;0.48;100.00
64078;BME280;51039;49.696;10.808;2023-02-02T03:10:51;98630.22;;;0.55;100.00
64078;BME280;51039;49.696;10.808;2023-02-02T03:13:17;98616.63;;;0.52;100.00
64078;BME280;51039;49.696;10.808;2023-02-02T03:15:43;98615.66;;;0.53;100.00
64078;BME280;51039;49.696;10.808;2023-02-02T03:18:13;98619.78;;;0.55;100.00
64078;BME280;51039;49.696;10.808;2023-02-02T03:20:42;98609.09;;;0.58;100.00
64078;BME280;51039;49.696;10.808;2023-02-02T03:23:09;98610.47;;;0.53;100.00
64078;BME280;51039;49.696;10.808;2023-02-02T03:25:34;98618.41;;;0.51;100.00
64078;BME280;51039;49.696;10.808;2023-02-02T03:28:00;98622.09;;;0.49;100.00
64078;BME280;51039;49.696;10.808;2023-02-02T03:30:26;98621.56;;;0.55;100.00
64078;BME280;51039;49.696;10.808;2023-02-02T03:32:52;98626.53;;;0.58;100.00
64078;BME280;51039;49.696;10.808;2023-02-02T03:35:17;98626.94;;;0.63;100.00
64078;BME280;51039;49.696;10.808;2023-02-02T03:37:44;98620.34;;;0.59;100.00
64078;BME280;51039;49.696;10.808;2023-02-02T03:40:10;98620.47;;;0.57;100.00
64078;BME280;51039;49.696;10.808;2023-02-02T03:42:35;98613.75;;;0.55;100.00
64078;BME280;51039;49.696;10.808;2023-02-02T03:45:01;98607.59;;;0.56;100.00
64078;BME280;51039;49.696;10.808;2023-02-02T03:47:27;98603.75;;;0.60;100.00
64078;BME280;51039;49.696;10.808;2023-02-02T03:49:53;98597.88;;;0.58;100.00
64078;BME280;51039;49.696;10.808;2023-02-02T03:52:18;98612.84;;;0.66;100.00
64078;BME280;51039;49.696;10.808;2023-02-02T03:54:44;98615.03;;;0.70;100.00
64078;BME280;51039;49.696;10.808;2023-02-02T03:57:09;98607.09;;;0.72;100.00
64078;BME280;51039;49.696;10.808;2023-02-02T03:59:34;98623.28;;;0.75;100.00
64078;BME280;51039;49.696;10.808;2023-02-02T04:01:59;98622.06;;;0.80;100.00
64078;BME280;51039;49.696;10.808;2023-02-02T04:04:25;98622.63;;;0.83;100.00
64078;BME280;51039;49.696;10.808;2023-02-02T04:06:50;98624.56;;;0.91;100.00
64078;BME280;51039;49.696;10.808;2023-02-02T04:09:15;98627.72;;;0.94;100.00
64078;BME280;51039;49.696;10.808;2023-02-02T04:11:41;98639.91;;;0.94;100.00
64078;BME280;51039;49.696;10.808;2023-02-02T04:14:06;98638.56;;;1.00;100.00
64078;BME280;51039;49.696;10.808;2023-02-02T04:16:31;98646.78;;;0.95;100.00
64078;BME280;51039;49.696;10.808;2023-02-02T04:18:59;98660.38;;;0.89;100.00
64078;BME280;51039;49.696;10.808;2023-02-02T04:21:25;98656.53;;;0.83;100.00
64078;BME280;51039;49.696;10.808;2023-02-02T04:23:50;98651.31;;;0.83;100.00
64078;BME280;51039;49.696;10.808;2023-02-02T04:26:15;98650.19;;;0.86;100.00
64078;BME280;51039;49.696;10.808;2023-02-02T04:28:40;98666.50;;;0.78;100.00
64078;BME280;51039;49.696;10.808;2023-02-02T04:31:06;98662.25;;;0.77;100.00
64078;BME280;51039;49.696;10.808;2023-02-02T04:33:32;98656.09;;;0.78;100.00
64078;BME280;51039;49.696;10.808;2023-02-02T04:35:58;98654.72;;;0.84;100.00
64078;BME280;51039;49.696;10.808;2023-02-02T04:38:23;98664.06;;;0.86;100.00
64078;BME280;51039;49.696;10.808;2023-02-02T04:40:49;98663.66;;;0.91;100.00
64078;BME280;51039;49.696;10.808;2023-02-02T04:43:14;98663.66;;;0.91;100.00
64078;BME280;51039;49.696;10.808;2023-02-02T04:45:40;98661.19;;;0.89;100.00
64078;BME280;51039;49.696;10.808;2023-02-02T04:48:06;98671.50;;;0.91;100.00
64078;BME280;51039;49.696;10.808;2023-02-02T04:50:31;98670.28;;;0.95;100.00
64078;BME280;51039;49.696;10.808;2023-02-02T04:52:57;98671.50;;;0.91;100.00
64078;BME280;51039;49.696;10.808;2023-02-02T04:55:22;98680.41;;;0.98;100.00
64078;BME280;51039;49.696;10.808;2023-02-02T04:57:47;98681.38;;;0.97;100.00
64078;BME280;51039;49.696;10.808;2023-02-02T05:00:13;98685.50;;;1.00;100.00
64078;BME280;51039;49.696;10.808;2023-02-02T05:02:39;98685.38;;;1.01;100.00
64078;BME280;51039;49.696;10.808;2023-02-02T05:05:07;98695.28;;;1.07;100.00
64078;BME280;51039;49.696;10.808;2023-02-02T05:07:35;98691.31;;;1.13;100.00
64078;BME280;51039;49.696;10.808;2023-02-02T05:10:01;98688.56;;;1.14;100.00
64078;BME280;51039;49.696;10.808;2023-02-02T05:12:26;98695.00;;;1.10;100.00
64078;BME280;51039;49.696;10.808;2023-02-02T05:14:51;98693.38;;;1.19;100.00
64078;BME280;51039;49.696;10.808;2023-02-02T05:17:17;98692.97;;;1.24;100.00
64078;BME280;51039;49.696;10.808;2023-02-02T05:19:42;98702.72;;;1.22;100.00
64078;BME280;51039;49.696;10.808;2023-02-02T05:22:07;98700.63;;;1.15;100.00
64078;BME280;51039;49.696;10.808;2023-02-02T05:24:33;98705.56;;;1.09;100.00
64078;BME280;51039;49.696;10.808;2023-02-02T05:26:58;98700.47;;;1.07;100.00
64078;BME280;51039;49.696;10.808;2023-02-02T05:29:28;98708.47;;;1.15;100.00
64078;BME280;51039;49.696;10.808;2023-02-02T05:31:54;98704.22;;;1.14;100.00
64078;BME280;51039;49.696;10.808;2023-02-02T05:34:20;98714.78;;;1.13;100.00
64078;BME280;51039;49.696;10.808;2023-02-02T05:36:46;98713.97;;;1.12;100.00
64078;BME280;51039;49.696;10.808;2023-02-02T05:39:11;98713.69;;;1.15;100.00
64078;BME280;51039;49.696;10.808;2023-02-02T05:41:37;98713.69;;;1.15;100.00
64078;BME280;51039;49.696;10.808;2023-02-02T05:44:02;98699.94;;;1.13;100.00
64078;BME280;51039;49.696;10.808;2023-02-02T05:46:28;98699.94;;;1.13;100.00
64078;BME280;51039;49.696;10.808;2023-02-02T05:48:54;98699.81;;;1.15;100.00
64078;BME280;51039;49.696;10.808;2023-02-02T05:51:28;98709.13;;;1.08;100.00
64078;BME280;51039;49.696;10.808;2023-02-02T05:53:57;98701.31;;;1.08;100.00
64078;BME280;51039;49.696;10.808;2023-02-02T05:56:22;98705.69;;;1.07;100.00
64078;BME280;51039;49.696;10.808;2023-02-02T05:58:47;98723.97;;;1.07;100.00
64078;BME280;51039;49.696;10.808;2023-02-02T06:01:14;98715.19;;;1.08;100.00
64078;BME280;51039;49.696;10.808;2023-02-02T06:03:41;98709.97;;;1.08;100.00
64078;BME280;51039;49.696;10.808;2023-02-02T06:06:06;98722.47;;;1.14;100.00
64078;BME280;51039;49.696;10.808;2023-02-02T06:08:32;98712.31;;;1.11;100.00
64078;BME280;51039;49.696;10.808;2023-02-02T06:10:58;98709.00;;;1.09;100.00
64078;BME280;51039;49.696;10.808;2023-02-02T06:13:23;98712.59;;;1.08;100.00
64078;BME280;51039;49.696;10.808;2023-02-02T06:15:49;98711.22;;;1.04;100.00
64078;BME280;51039;49.696;10.808;2023-02-02T06:18:14;98717.81;;;1.08;100.00
64078;BME280;51039;49.696;10.808;2023-02-02T06:20:39;98723.28;;;1.05;100.00
64078;BME280;51039;49.696;10.808;2023-02-02T06:23:05;98714.19;;;1.00;100.00
64078;BME280;51039;49.696;10.808;2023-02-02T06:25:30;98721.34;;;0.97;100.00
64078;BME280;51039;49.696;10.808;2023-02-02T06:27:56;98719.41;;;1.00;100.00
64078;BME280;51039;49.696;10.808;2023-02-02T06:30:23;98719.69;;;0.96;100.00
64078;BME280;51039;49.696;10.808;2023-02-02T06:32:49;98722.00;;;0.90;100.00
64078;BME280;51039;49.696;10.808;2023-02-02T06:35:14;98720.34;;;0.89;100.00
64078;BME280;51039;49.696;10.808;2023-02-02T06:37:39;98710.06;;;0.87;100.00
64078;BME280;51039;49.696;10.808;2023-02-02T06:40:06;98715.41;;;0.86;100.00
64078;BME280;51039;49.696;10.808;2023-02-02T06:42:32;98709.78;;;0.90;100.00
64078;BME280;51039;49.696;10.808;2023-02-02T06:44:58;98718.84;;;0.96;100.00
64078;BME280;51039;49.696;10.808;2023-02-02T06:47:23;98705.13;;;0.94;100.00
64078;BME280;51039;49.696;10.808;2023-02-02T06:49:48;98704.56;;;1.00;100.00
64078;BME280;51039;49.696;10.808;2023-02-02T06:52:13;98710.50;;;1.02;100.00
64078;BME280;51039;49.696;10.808;2023-02-02T06:54:39;98706.41;;;1.09;100.00
64078;BME280;51039;49.696;10.808;2023-02-02T06:57:04;98712.31;;;1.21;100.00
64078;BME280;51039;49.696;10.808;2023-02-02T06:59:29;98710.13;;;1.26;100.00
64078;BME280;51039;49.696;10.808;2023-02-02T07:01:55;98713.75;;;1.35;100.00
64078;BME280;51039;49.696;10.808;2023-02-02T07:04:20;98719.22;;;1.42;100.00
64078;BME280;51039;49.696;10.808;2023-02-02T07:06:45;98719.22;;;1.42;100.00
64078;BME280;51039;49.696;10.808;2023-02-02T07:09:11;98723.78;;;1.49;100.00
64078;BME280;51039;49.696;10.808;2023-02-02T07:11:36;98718.84;;;1.56;100.00
64078;BME280;51039;49.696;10.808;2023-02-02T07:14:02;98732.72;;;1.66;100.00
64078;BME280;51039;49.696;10.808;2023-02-02T07:16:27;98737.53;;;1.71;100.00
64078;BME280;51039;49.696;10.808;2023-02-02T07:18:53;98733.97;;;1.72;100.00
64078;BME280;51039;49.696;10.808;2023-02-02T07:21:22;98729.31;;;1.75;100.00
64078;BME280;51039;49.696;10.808;2023-02-02T07:23:49;98734.09;;;1.80;100.00
64078;BME280;51039;49.696;10.808;2023-02-02T07:26:16;98738.38;;;1.81;100.00
64078;BME280;51039;49.696;10.808;2023-02-02T07:28:43;98744.28;;;1.83;100.00
64078;BME280;51039;49.696;10.808;2023-02-02T07:31:16;98737.69;;;1.79;100.00
64078;BME280;51039;49.696;10.808;2023-02-02T07:33:43;98738.22;;;1.83;100.00
64078;BME280;51039;49.696;10.808;2023-02-02T07:36:10;98740.13;;;1.81;100.00
64078;BME280;51039;49.696;10.808;2023-02-02T07:38:40;98735.34;;;1.86;100.00
64078;BME280;51039;49.696;10.808;2023-02-02T07:41:05;98736.31;;;1.94;100.00
64078;BME280;51039;49.696;10.808;2023-02-02T07:43:30;98750.88;;;1.87;100.00
64078;BME280;51039;49.696;10.808;2023-02-02T07:46:00;98744.69;;;1.88;100.00
64078;BME280;51039;49.696;10.808;2023-02-02T07:48:27;98744.97;;;1.85;100.00
64078;BME280;51039;49.696;10.808;2023-02-02T07:50:56;98742.06;;;1.88;100.00
64078;BME280;51039;49.696;10.808;2023-02-02T07:53:23;98743.72;;;1.89;100.00
64078;BME280;51039;49.696;10.808;2023-02-02T07:55:48;98745.34;;;2.00;100.00
64078;BME280;51039;49.696;10.808;2023-02-02T07:58:13;98745.66;;;2.07;100.00
64078;BME280;51039;49.696;10.808;2023-02-02T08:00:39;98743.97;;;2.06;100.00
64078;BME280;51039;49.696;10.808;2023-02-02T08:03:04;98758.56;;;2.08;100.00
64078;BME280;51039;49.696;10.808;2023-02-02T08:05:29;98748.94;;;1.99;100.00
64078;BME280;51039;49.696;10.808;2023-02-02T08:07:56;98748.41;;;1.95;100.00
64078;BME280;51039;49.696;10.808;2023-02-02T08:10:21;98745.34;;;2.00;100.00
64078;BME280;51039;49.696;10.808;2023-02-02T08:12:46;98747.56;;;1.95;100.00
64078;BME280;51039;49.696;10.808;2023-02-02T08:15:11;98749.78;;;1.90;100.00
64078;BME280;51039;49.696;10.808;2023-02-02T08:17:37;98749.38;;;1.94;100.00
64078;BME280;51039;49.696;10.808;2023-02-02T08:20:02;98747.28;;;1.98;100.00
64078;BME280;51039;49.696;10.808;2023-02-02T08:22:28;98742.91;;;1.89;100.00
64078;BME280;51039;49.696;10.808;2023-02-02T08:24:53;98751.69;;;1.88;100.00
64078;BME280;51039;49.696;10.808;2023-02-02T08:27:18;98745.22;;;1.92;100.00
64078;BME280;51039;49.696;10.808;2023-02-02T08:29:44;98759.09;;;1.83;100.00
64078;BME280;51039;49.696;10.808;2023-02-02T08:32:10;98750.88;;;1.87;100.00
64078;BME280;51039;49.696;10.808;2023-02-02T08:34:35;98752.13;;;1.93;100.00
64078;BME280;51039;49.696;10.808;2023-02-02T08:37:01;98750.88;;;1.97;100.00
64078;BME280;51039;49.696;10.808;2023-02-02T08:39:27;98751.13;;;2.13;100.00
64078;BME280;51039;49.696;10.808;2023-02-02T08:41:55;98750.88;;;2.07;100.00
64078;BME280;51039;49.696;10.808;2023-02-02T08:44:20;98745.75;;;2.15;100.00
64078;BME280;51039;49.696;10.808;2023-02-02T08:46:46;98754.56;;;2.24;100.00
64078;BME280;51039;49.696;10.808;2023-02-02T08:49:11;98761.03;;;2.29;100.00
64078;BME280;51039;49.696;10.808;2023-02-02T08:51:37;98764.31;;;2.31;100.00
64078;BME280;51039;49.696;10.808;2023-02-02T08:54:02;98767.78;;;2.69;100.00
64078;BME280;51039;49.696;10.808;2023-02-02T08:56:28;98764.25;;;2.61;100.00
64078;BME280;51039;49.696;10.808;2023-02-02T08:58:54;98763.16;;;2.53;100.00
64078;BME280;51039;49.696;10.808;2023-02-02T09:01:31;98764.97;;;2.53;100.00
64078;BME280;51039;49.696;10.808;2023-02-02T09:06:57;98759.63;;;2.45;100.00
64078;BME280;51039;49.696;10.808;2023-02-02T09:09:15;98761.00;;;2.49;100.00
64078;BME280;51039;49.696;10.808;2023-02-02T09:11:41;98756.72;;;2.48;100.00
64078;BME280;51039;49.696;10.808;2023-02-02T09:14:09;98763.72;;;2.57;100.00
64078;BME280;51039;49.696;10.808;2023-02-02T09:16:35;98767.69;;;2.61;100.00
64078;BME280;51039;49.696;10.808;2023-02-02T09:19:01;98764.81;;;2.64;100.00
64078;BME280;51039;49.696;10.808;2023-02-02T09:21:27;98761.91;;;2.58;100.00
64078;BME280;51039;49.696;10.808;2023-02-02T09:23:52;98764.38;;;2.69;100.00
64078;BME280;51039;49.696;10.808;2023-02-02T09:28:44;98767.31;;;2.46;100.00
64078;BME280;51039;49.696;10.808;2023-02-02T09:31:12;98767.13;;;2.67;100.00
64078;BME280;51039;49.696;10.808;2023-02-02T09:33:37;98766.47;;;2.55;100.00
64078;BME280;51039;49.696;10.808;2023-02-02T09:36:07;98772.25;;;2.49;100.00
64078;BME280;51039;49.696;10.808;2023-02-02T09:38:33;98767.31;;;2.56;100.00
64078;BME280;51039;49.696;10.808;2023-02-02T09:40:59;98772.22;;;2.69;100.00
64078;BME280;51039;49.696;10.808;2023-02-02T09:43:29;98767.94;;;2.78;100.00
64078;BME280;51039;49.696;10.808;2023-02-02T09:46:27;98772.59;;;2.84;100.00
64078;BME280;51039;49.696;10.808;2023-02-02T09:48:59;98780.19;;;2.67;100.00
64078;BME280;51039;49.696;10.808;2023-02-02T09:51:31;98778.00;;;2.72;100.00
64078;BME280;51039;49.696;10.808;2023-02-02T09:54:04;98780.03;;;2.79;100.00
64078;BME280;51039;49.696;10.808;2023-02-02T09:56:38;98776.63;;;2.68;100.00
64078;BME280;51039;49.696;10.808;2023-02-02T09:59:11;98781.19;;;2.57;100.00
64078;BME280;51039;49.696;10.808;2023-02-02T10:01:43;98774.19;;;2.57;100.00
64078;BME280;51039;49.696;10.808;2023-02-02T10:04:21;98784.38;;;2.60;100.00
64078;BME280;51039;49.696;10.808;2023-02-02T10:06:55;98766.44;;;2.65;100.00
64078;BME280;51039;49.696;10.808;2023-02-02T10:13:09;98777.50;;;2.49;100.00
64078;BME280;51039;49.696;10.808;2023-02-02T10:20:32;98768.00;;;2.39;100.00
64078;BME280;51039;49.696;10.808;2023-02-02T10:32:20;98776.53;;;2.50;100.00
64078;BME280;51039;49.696;10.808;2023-02-02T10:38:17;98771.81;;;2.54;100.00
64078;BME280;51039;49.696;10.808;2023-02-02T10:41:24;98760.13;;;2.68;100.00
64078;BME280;51039;49.696;10.808;2023-02-02T10:46:58;98760.13;;;3.23;100.00
64078;BME280;51039;49.696;10.808;2023-02-02T10:57:49;98755.19;;;4.64;100.00
64078;BME280;51039;49.696;10.808;2023-02-02T11:00:38;98758.03;;;4.79;100.00
64078;BME280;51039;49.696;10.808;2023-02-02T11:03:11;98742.34;;;4.87;100.00
64078;BME280;51039;49.696;10.808;2023-02-02T11:05:39;98749.25;;;4.96;100.00
64078;BME280;51039;49.696;10.808;2023-02-02T11:08:24;98741.09;;;4.99;100.00
64078;BME280;51039;49.696;10.808;2023-02-02T11:10:56;98747.34;;;5.06;100.00
64078;BME280;51039;49.696;10.808;2023-02-02T11:13:32;98743.28;;;5.12;100.00
64078;BME280;51039;49.696;10.808;2023-02-02T11:18:39;98751.03;;;5.22;100.00
64078;BME280;51039;49.696;10.808;2023-02-02T11:24:05;98752.66;;;5.31;100.00
64078;BME280;51039;49.696;10.808;2023-02-02T11:26:54;98752.19;;;5.27;100.00
64078;BME280;51039;49.696;10.808;2023-02-02T11:31:53;98746.09;;;5.27;100.00
64078;BME280;51039;49.696;10.808;2023-02-02T11:34:20;98744.47;;;5.26;100.00
64078;BME280;51039;49.696;10.808;2023-02-02T11:37:21;98741.84;;;5.34;100.00
64078;BME280;51039;49.696;10.808;2023-02-02T11:39:44;98755.66;;;5.36;100.00
64078;BME280;51039;49.696;10.808;2023-02-02T11:42:11;98753.69;;;5.38;100.00
64078;BME280;51039;49.696;10.808;2023-02-02T11:44:42;98751.22;;;5.37;100.00
64078;BME280;51039;49.696;10.808;2023-02-02T11:47:16;98749.91;;;5.41;100.00
64078;BME280;51039;49.696;10.808;2023-02-02T11:49:44;98737.63;;;5.41;100.00
64078;BME280;51039;49.696;10.808;2023-02-02T11:52:20;98744.84;;;5.47;100.00
64078;BME280;51039;49.696;10.808;2023-02-02T11:54:51;98739.94;;;5.53;100.00
64078;BME280;51039;49.696;10.808;2023-02-02T11:57:23;98744.53;;;5.50;100.00
64078;BME280;51039;49.696;10.808;2023-02-02T11:59:50;98742.56;;;5.53;100.00
64078;BME280;51039;49.696;10.808;2023-02-02T12:02:30;98749.16;;;5.57;100.00
64078;BME280;51039;49.696;10.808;2023-02-02T12:07:34;98752.44;;;5.67;100.00
64078;BME280;51039;49.696;10.808;2023-02-02T12:10:12;98749.66;;;5.77;100.00
64078;BME280;51039;49.696;10.808;2023-02-02T12:15:31;98742.13;;;5.90;100.00
64078;BME280;51039;49.696;10.808;2023-02-02T12:18:14;98746.44;;;5.99;100.00
64078;BME280;51039;49.696;10.808;2023-02-02T12:20:57;98743.16;;;5.97;100.00
64078;BME280;51039;49.696;10.808;2023-02-02T12:23:41;98750.00;;;5.90;100.00
64078;BME280;51039;49.696;10.808;2023-02-02T12:26:21;98754.28;;;5.83;100.00
64078;BME280;51039;49.696;10.808;2023-02-02T12:36:57;98760.50;;;5.65;100.00
64078;BME280;51039;49.696;10.808;2023-02-02T12:42:33;98775.28;;;5.58;100.00
64078;BME280;51039;49.696;10.808;2023-02-02T12:55:47;98782.66;;;5.63;100.00
64078;BME280;51039;49.696;10.808;2023-02-02T13:08:57;98796.47;;;5.65;100.00
64078;BME280;51039;49.696;10.808;2023-02-02T13:11:41;98796.78;;;5.62;100.00
64078;BME280;51039;49.696;10.808;2023-02-02T13:14:16;98794.81;;;5.64;100.00
64078;BME280;51039;49.696;10.808;2023-02-02T13:16:49;98792.88;;;5.66;100.00
64078;BME280;51039;49.696;10.808;2023-02-02T13:19:34;98797.78;;;5.69;100.00
64078;BME280;51039;49.696;10.808;2023-02-02T13:22:07;98793.84;;;5.73;100.00
64078;BME280;51039;49.696;10.808;2023-02-02T13:24:39;98805.38;;;5.72;100.00
64078;BME280;51039;49.696;10.808;2023-02-02T13:27:09;98806.81;;;5.66;100.00
64078;BME280;51039;49.696;10.808;2023-02-02T13:29:43;98811.25;;;5.66;100.00
64078;BME280;51039;49.696;10.808;2023-02-02T13:37:17;98818.94;;;5.59;100.00
64078;BME280;51039;49.696;10.808;2023-02-02T13:39:55;98826.31;;;5.56;100.00
64078;BME280;51039;49.696;10.808;2023-02-02T13:48:14;98836.31;;;5.52;100.00
64078;BME280;51039;49.696;10.808;2023-02-02T13:50:44;98835.22;;;5.55;100.00
64078;BME280;51039;49.696;10.808;2023-02-02T13:56:20;98847.03;;;5.59;100.00
64078;BME280;51039;49.696;10.808;2023-02-02T13:59:04;98856.03;;;5.56;100.00
64078;BME280;51039;49.696;10.808;2023-02-02T14:01:45;98868.09;;;5.32;99.68
64078;BME280;51039;49.696;10.808;2023-02-02T14:04:21;98868.69;;;4.66;99.40
64078;BME280;51039;49.696;10.808;2023-02-02T14:09:26;98877.44;;;4.03;100.00
64078;BME280;51039;49.696;10.808;2023-02-02T14:11:57;98882.63;;;3.85;100.00
64078;BME280;51039;49.696;10.808;2023-02-02T14:14:26;98890.31;;;3.68;100.00
64078;BME280;51039;49.696;10.808;2023-02-02T14:22:00;98894.53;;;3.14;100.00
64078;BME280;51039;49.696;10.808;2023-02-02T14:26:57;98921.81;;;3.02;100.00
64078;BME280;51039;49.696;10.808;2023-02-02T14:45:31;98938.13;;;2.66;100.00
64078;BME280;51039;49.696;10.808;2023-02-02T14:47:59;98945.97;;;2.66;100.00
64078;BME280;51039;49.696;10.808;2023-02-02T14:50:31;98945.13;;;2.66;100.00
64078;BME280;51039;49.696;10.808;2023-02-02T14:55:52;98956.00;;;2.61;100.00
64078;BME280;51039;49.696;10.808;2023-02-02T15:01:05;98948.84;;;2.53;100.00
64078;BME280;51039;49.696;10.808;2023-02-02T15:06:40;98966.88;;;2.47;100.00
64078;BME280;51039;49.696;10.808;2023-02-02T15:22:30;98981.31;;;2.41;100.00
64078;BME280;51039;49.696;10.808;2023-02-02T15:25:02;98990.94;;;2.41;100.00
64078;BME280;51039;49.696;10.808;2023-02-02T15:27:37;98993.38;;;2.32;100.00
64078;BME280;51039;49.696;10.808;2023-02-02T15:30:06;98999.47;;;2.33;100.00
64078;BME280;51039;49.696;10.808;2023-02-02T15:32:36;99001.53;;;2.29;100.00
64078;BME280;51039;49.696;10.808;2023-02-02T15:35:02;99010.63;;;2.35;100.00
64078;BME280;51039;49.696;10.808;2023-02-02T15:37:35;99014.03;;;2.35;100.00
64078;BME280;51039;49.696;10.808;2023-02-02T15:40:12;99012.41;;;2.44;100.00
64078;BME280;51039;49.696;10.808;2023-02-02T15:42:44;99015.56;;;2.38;100.00
64078;BME280;51039;49.696;10.808;2023-02-02T15:45:29;99015.84;;;2.35;100.00
64078;BME280;51039;49.696;10.808;2023-02-02T15:47:57;99027.09;;;2.26;100.00
64078;BME280;51039;49.696;10.808;2023-02-02T15:50:24;99016.75;;;2.24;100.00
64078;BME280;51039;49.696;10.808;2023-02-02T15:52:52;99031.63;;;2.24;100.00
64078;BME280;51039;49.696;10.808;2023-02-02T15:57:55;99043.75;;;2.34;100.00
64078;BME280;51039;49.696;10.808;2023-02-02T16:00:28;99049.41;;;2.40;100.00
64078;BME280;51039;49.696;10.808;2023-02-02T16:03:03;99058.75;;;2.32;100.00